Darlington, SC (29532)

7:01 AM EDT on April 25, 2015 (GMT -0400)
Nucor Employee Family Medical Center | | Change Station
CLOSE
Current Station
Personal Weather Station
Location: Darlington, SC
Elevation: 151 ft
Nearby Weather Stations

Elev 151 ft 34.38 °N, 79.90 °W | Updated 4 seconds ago

Rain
Rain
57.2 °F
Feels Like 57.2 °F
N
2.7
Wind Variable Wind from SW
Gusts 2.7 mph

Today
High -- | Low -- °F
--% Chance of Precip.
Yesterday
High -- | Low -- °F
Precip. -- in
6:36 AM 7:58 PM
Waxing Crescent, 45% visible
Pressure 29.94 in
Visibility 10.0 miles
Clouds Mostly Cloudy 11000 ft
Dew Point 51 °F
Humidity 79%
Rainfall 0.00 in
Snow Depth Not available.
UV 0 out of 12
Pollen 8.60 out of 12
Air Quality Not available.
Flu Activity Local Activity
METAR KUDG 251055Z AUTO 21006KT 10SM BKN110 14/09 A2994 RMK AO1

More Conditions Fewer Conditions

Pressure 29.94 in
Visibility 10.0 miles
Clouds Mostly Cloudy 11000 ft
Dew Point 51 °F
Humidity 79%
Rainfall 0.00 in
Snow Depth Not available.
UV 0 out of 12
Pollen 8.60 out of 12
Air Quality Not available.
Flu Activity Local Activity
METAR KUDG 251055Z AUTO 21006KT 10SM BKN110 14/09 A2994 RMK AO1

More Conditions Fewer Conditions

10-Day Weather Forecast

Almanac

Astronomy

Apr. 25, 2015 Rise Set
Actual Time
Civil Twilight
Nautical Twilight
Astronomical Twilight
Moon
Length of Visible Light
Length of Day
Tomorrow will be .
, % of the Moon is Illuminated

Today's Extremes

State Highs State Lows

Community

WunderPhotos

Upload Photos

1,816,638 photos uploaded!

WunderBlogs® & News

Nearby

Air Quality

  Air Quality AQ Index Pollutant
Not available.

Snow Depth

Station Depth Elevation

Earthquake Activity

City Distance Mag. Time & Date
Minimum magnitude displayed is 2.5.

Coastal Water Temperatures

Place Temperature

Stations

Nearby Weather Stations

Station Location Temp. Windchill Dew Point Humidity Wind Precip. Elev Updated Type